sensor_id;sensor_type;location;lat;lon;timestamp;pressure;altitude;pressure_sealevel;temperature;humidity
6387;BME280;3226;42.162;24.756;2023-04-01T00:02:18;98853.09;;;10.01;74.07
6387;BME280;3226;42.162;24.756;2023-04-01T00:04:46;98852.63;;;10.05;73.94
6387;BME280;3226;42.162;24.756;2023-04-01T00:07:15;98844.56;;;9.98;73.64
6387;BME280;3226;42.162;24.756;2023-04-01T00:09:43;98832.78;;;9.65;75.45
6387;BME280;3226;42.162;24.756;2023-04-01T00:12:11;98837.00;;;9.38;76.53
6387;BME280;3226;42.162;24.756;2023-04-01T00:14:39;98833.41;;;9.29;77.36
6387;BME280;3226;42.162;24.756;2023-04-01T00:17:07;98843.44;;;9.44;76.95
6387;BME280;3226;42.162;24.756;2023-04-01T00:19:35;98849.72;;;9.61;76.33
6387;BME280;3226;42.162;24.756;2023-04-01T00:22:03;98848.53;;;9.55;76.34
6387;BME280;3226;42.162;24.756;2023-04-01T00:24:33;98851.53;;;9.40;77.04
6387;BME280;3226;42.162;24.756;2023-04-01T00:27:01;98854.28;;;9.59;76.84
6387;BME280;3226;42.162;24.756;2023-04-01T00:29:29;98853.97;;;9.81;75.33
6387;BME280;3226;42.162;24.756;2023-04-01T00:31:57;98846.00;;;9.73;75.38
6387;BME280;3226;42.162;24.756;2023-04-01T00:34:25;98846.59;;;9.57;76.36
6387;BME280;3226;42.162;24.756;2023-04-01T00:36:53;98852.03;;;9.83;75.27
6387;BME280;3226;42.162;24.756;2023-04-01T00:39:21;98854.88;;;10.00;74.58
6387;BME280;3226;42.162;24.756;2023-04-01T00:41:50;98839.00;;;9.64;75.38
6387;BME280;3226;42.162;24.756;2023-04-01T00:44:20;98851.16;;;9.45;76.65
6387;BME280;3226;42.162;24.756;2023-04-01T00:46:49;98822.09;;;9.48;76.28
6387;BME280;3226;42.162;24.756;2023-04-01T00:49:20;98843.13;;;9.76;75.55
6387;BME280;3226;42.162;24.756;2023-04-01T00:51:52;98844.75;;;9.77;75.65
6387;BME280;3226;42.162;24.756;2023-04-01T00:54:22;98844.38;;;9.52;76.02
6387;BME280;3226;42.162;24.756;2023-04-01T00:56:55;98844.66;;;9.59;75.90
6387;BME280;3226;42.162;24.756;2023-04-01T00:59:27;98843.97;;;9.47;76.22
6387;BME280;3226;42.162;24.756;2023-04-01T01:01:57;98839.97;;;9.63;75.70
6387;BME280;3226;42.162;24.756;2023-04-01T01:04:27;98831.44;;;9.51;76.87
6387;BME280;3226;42.162;24.756;2023-04-01T01:07:01;98828.41;;;9.55;76.33
6387;BME280;3226;42.162;24.756;2023-04-01T01:09:40;98830.53;;;9.90;75.58
6387;BME280;3226;42.162;24.756;2023-04-01T01:12:14;98848.66;;;10.01;75.10
6387;BME280;3226;42.162;24.756;2023-04-01T01:14:51;98841.69;;;9.92;74.92
6387;BME280;3226;42.162;24.756;2023-04-01T01:17:32;98839.38;;;9.69;75.23
6387;BME280;3226;42.162;24.756;2023-04-01T01:20:22;98845.44;;;9.79;75.26
6387;BME280;3226;42.162;24.756;2023-04-01T01:23:05;98844.50;;;9.61;74.95
6387;BME280;3226;42.162;24.756;2023-04-01T01:25:45;98836.38;;;9.64;74.77
6387;BME280;3226;42.162;24.756;2023-04-01T01:28:33;98833.34;;;9.78;74.97
6387;BME280;3226;42.162;24.756;2023-04-01T01:31:12;98837.44;;;9.81;74.31
6387;BME280;3226;42.162;24.756;2023-04-01T01:33:53;98832.22;;;9.81;74.87
6387;BME280;3226;42.162;24.756;2023-04-01T01:36:28;98829.06;;;9.77;74.27
6387;BME280;3226;42.162;24.756;2023-04-01T01:39:01;98822.63;;;9.62;75.45
6387;BME280;3226;42.162;24.756;2023-04-01T01:41:31;98822.22;;;9.57;75.70
6387;BME280;3226;42.162;24.756;2023-04-01T01:44:03;98824.63;;;9.88;74.35
6387;BME280;3226;42.162;24.756;2023-04-01T01:46:33;98813.25;;;9.69;74.85
6387;BME280;3226;42.162;24.756;2023-04-01T01:49:03;98813.25;;;9.69;74.90
6387;BME280;3226;42.162;24.756;2023-04-01T01:51:34;98812.16;;;9.72;75.97
6387;BME280;3226;42.162;24.756;2023-04-01T01:54:02;98807.47;;;9.75;76.37
6387;BME280;3226;42.162;24.756;2023-04-01T01:56:30;98792.91;;;9.63;75.72
6387;BME280;3226;42.162;24.756;2023-04-01T01:59:02;98798.97;;;9.53;76.20
6387;BME280;3226;42.162;24.756;2023-04-01T02:01:32;98788.41;;;9.55;76.45
6387;BME280;3226;42.162;24.756;2023-04-01T02:04:03;98779.06;;;9.33;76.91
6387;BME280;3226;42.162;24.756;2023-04-01T02:06:37;98787.75;;;9.43;76.70
6387;BME280;3226;42.162;24.756;2023-04-01T02:09:08;98777.72;;;9.29;77.25
6387;BME280;3226;42.162;24.756;2023-04-01T02:11:41;98771.50;;;9.49;76.67
6387;BME280;3226;42.162;24.756;2023-04-01T02:14:13;98788.50;;;9.63;76.34
6387;BME280;3226;42.162;24.756;2023-04-01T02:16:46;98787.69;;;9.53;77.04
6387;BME280;3226;42.162;24.756;2023-04-01T02:19:17;98785.13;;;9.43;77.18
6387;BME280;3226;42.162;24.756;2023-04-01T02:21:53;98801.78;;;9.42;77.87
6387;BME280;3226;42.162;24.756;2023-04-01T02:24:24;98810.84;;;9.38;78.16
6387;BME280;3226;42.162;24.756;2023-04-01T02:26:54;98814.00;;;9.51;77.59
6387;BME280;3226;42.162;24.756;2023-04-01T02:29:23;98810.22;;;9.64;76.60
6387;BME280;3226;42.162;24.756;2023-04-01T02:31:53;98811.94;;;9.55;77.16
6387;BME280;3226;42.162;24.756;2023-04-01T02:34:22;98803.53;;;9.51;76.97
6387;BME280;3226;42.162;24.756;2023-04-01T02:36:53;98781.28;;;9.28;78.22
6387;BME280;3226;42.162;24.756;2023-04-01T02:39:22;98774.69;;;9.33;78.04
6387;BME280;3226;42.162;24.756;2023-04-01T02:41:52;98767.13;;;9.20;78.02
6387;BME280;3226;42.162;24.756;2023-04-01T02:44:21;98781.03;;;8.91;79.29
6387;BME280;3226;42.162;24.756;2023-04-01T02:46:49;98793.25;;;9.01;79.05
6387;BME280;3226;42.162;24.756;2023-04-01T02:49:17;98792.72;;;8.97;79.44
6387;BME280;3226;42.162;24.756;2023-04-01T02:51:44;98791.91;;;8.77;80.57
6387;BME280;3226;42.162;24.756;2023-04-01T02:54:14;98789.25;;;8.57;81.36
6387;BME280;3226;42.162;24.756;2023-04-01T02:56:42;98772.28;;;8.32;82.36
6387;BME280;3226;42.162;24.756;2023-04-01T02:59:10;98773.38;;;8.19;83.14
6387;BME280;3226;42.162;24.756;2023-04-01T03:01:38;98770.56;;;8.01;83.76
6387;BME280;3226;42.162;24.756;2023-04-01T03:04:06;98773.00;;;7.62;85.39
6387;BME280;3226;42.162;24.756;2023-04-01T03:06:34;98760.91;;;7.30;87.25
6387;BME280;3226;42.162;24.756;2023-04-01T03:09:02;98767.28;;;7.04;87.63
6387;BME280;3226;42.162;24.756;2023-04-01T03:11:32;98765.88;;;7.00;88.37
6387;BME280;3226;42.162;24.756;2023-04-01T03:14:00;98769.13;;;6.92;88.33
6387;BME280;3226;42.162;24.756;2023-04-01T03:16:28;98778.28;;;7.08;88.15
6387;BME280;3226;42.162;24.756;2023-04-01T03:18:56;98783.56;;;6.97;89.09
6387;BME280;3226;42.162;24.756;2023-04-01T03:21:26;98776.56;;;6.97;89.89
6387;BME280;3226;42.162;24.756;2023-04-01T03:23:54;98771.44;;;7.07;89.42
6387;BME280;3226;42.162;24.756;2023-04-01T03:26:22;98765.00;;;7.11;89.38
6387;BME280;3226;42.162;24.756;2023-04-01T03:28:51;98769.66;;;7.29;88.16
6387;BME280;3226;42.162;24.756;2023-04-01T03:31:19;98765.84;;;7.33;87.58
6387;BME280;3226;42.162;24.756;2023-04-01T03:33:49;98764.69;;;7.47;86.70
6387;BME280;3226;42.162;24.756;2023-04-01T03:36:17;98761.44;;;7.33;87.42
6387;BME280;3226;42.162;24.756;2023-04-01T03:38:46;98751.28;;;7.30;87.69
6387;BME280;3226;42.162;24.756;2023-04-01T03:41:14;98747.09;;;7.39;87.34
6387;BME280;3226;42.162;24.756;2023-04-01T03:43:43;98748.00;;;7.28;87.86
6387;BME280;3226;42.162;24.756;2023-04-01T03:46:17;98747.41;;;7.24;88.03
6387;BME280;3226;42.162;24.756;2023-04-01T03:48:45;98745.63;;;7.46;86.50
6387;BME280;3226;42.162;24.756;2023-04-01T03:51:13;98752.81;;;7.54;85.93
6387;BME280;3226;42.162;24.756;2023-04-01T03:53:41;98742.06;;;7.47;85.71
6387;BME280;3226;42.162;24.756;2023-04-01T03:56:09;98725.03;;;7.43;85.92
6387;BME280;3226;42.162;24.756;2023-04-01T03:58:37;98739.34;;;7.49;85.72
6387;BME280;3226;42.162;24.756;2023-04-01T04:01:15;98739.03;;;7.42;85.79
6387;BME280;3226;42.162;24.756;2023-04-01T04:03:43;98740.09;;;7.40;86.70
6387;BME280;3226;42.162;24.756;2023-04-01T04:06:13;98734.25;;;7.47;86.19
6387;BME280;3226;42.162;24.756;2023-04-01T04:08:41;98740.31;;;7.27;87.33
6387;BME280;3226;42.162;24.756;2023-04-01T04:11:09;98735.00;;;7.59;86.59
6387;BME280;3226;42.162;24.756;2023-04-01T04:13:37;98717.44;;;7.61;85.00
6387;BME280;3226;42.162;24.756;2023-04-01T04:16:06;98737.66;;;7.69;85.88
6387;BME280;3226;42.162;24.756;2023-04-01T04:18:36;98738.72;;;7.66;86.11
6387;BME280;3226;42.162;24.756;2023-04-01T04:21:04;98728.22;;;7.88;85.19
6387;BME280;3226;42.162;24.756;2023-04-01T04:23:32;98710.69;;;7.90;84.44
6387;BME280;3226;42.162;24.756;2023-04-01T04:26:02;98740.97;;;8.32;82.86
6387;BME280;3226;42.162;24.756;2023-04-01T04:28:31;98749.47;;;8.14;83.30
6387;BME280;3226;42.162;24.756;2023-04-01T04:31:00;98755.19;;;8.08;84.52
6387;BME280;3226;42.162;24.756;2023-04-01T04:33:28;98741.69;;;7.93;84.77
6387;BME280;3226;42.162;24.756;2023-04-01T04:35:58;98724.72;;;7.99;85.16
6387;BME280;3226;42.162;24.756;2023-04-01T04:38:27;98720.06;;;8.02;84.35
6387;BME280;3226;42.162;24.756;2023-04-01T04:40:55;98739.56;;;8.18;83.97
6387;BME280;3226;42.162;24.756;2023-04-01T04:43:23;98745.13;;;8.44;83.47
6387;BME280;3226;42.162;24.756;2023-04-01T04:45:51;98741.63;;;8.85;82.18
6387;BME280;3226;42.162;24.756;2023-04-01T04:48:19;98748.72;;;9.02;81.45
6387;BME280;3226;42.162;24.756;2023-04-01T04:50:48;98737.75;;;8.79;81.10
6387;BME280;3226;42.162;24.756;2023-04-01T04:53:18;98743.25;;;8.76;81.15
6387;BME280;3226;42.162;24.756;2023-04-01T04:55:48;98748.75;;;8.73;81.55
6387;BME280;3226;42.162;24.756;2023-04-01T04:58:16;98759.75;;;8.86;80.44
6387;BME280;3226;42.162;24.756;2023-04-01T05:00:45;98748.94;;;8.30;80.63
6387;BME280;3226;42.162;24.756;2023-04-01T05:03:13;98751.09;;;7.74;82.83
6387;BME280;3226;42.162;24.756;2023-04-01T05:05:48;98754.72;;;7.52;84.03
6387;BME280;3226;42.162;24.756;2023-04-01T05:08:18;98750.78;;;7.36;85.71
6387;BME280;3226;42.162;24.756;2023-04-01T05:10:46;98744.06;;;7.13;87.03
6387;BME280;3226;42.162;24.756;2023-04-01T05:13:14;98742.34;;;7.02;88.07
6387;BME280;3226;42.162;24.756;2023-04-01T05:15:42;98715.16;;;6.94;88.01
6387;BME280;3226;42.162;24.756;2023-04-01T05:18:10;98745.88;;;7.43;87.37
6387;BME280;3226;42.162;24.756;2023-04-01T05:20:38;98741.84;;;7.60;86.65
6387;BME280;3226;42.162;24.756;2023-04-01T05:23:06;98738.59;;;7.68;86.74
6387;BME280;3226;42.162;24.756;2023-04-01T05:25:37;98733.03;;;7.51;86.77
6387;BME280;3226;42.162;24.756;2023-04-01T05:28:05;98732.81;;;7.64;86.92
6387;BME280;3226;42.162;24.756;2023-04-01T05:30:33;98732.00;;;7.64;87.22
6387;BME280;3226;42.162;24.756;2023-04-01T05:33:01;98728.19;;;7.68;87.09
6387;BME280;3226;42.162;24.756;2023-04-01T05:35:29;98724.34;;;7.72;87.01
6387;BME280;3226;42.162;24.756;2023-04-01T05:37:57;98733.72;;;7.85;86.68
6387;BME280;3226;42.162;24.756;2023-04-01T05:40:25;98712.00;;;7.74;86.97
6387;BME280;3226;42.162;24.756;2023-04-01T05:42:55;98710.91;;;7.67;87.57
6387;BME280;3226;42.162;24.756;2023-04-01T05:45:23;98702.16;;;7.78;86.79
6387;BME280;3226;42.162;24.756;2023-04-01T05:47:51;98691.16;;;7.74;87.80
6387;BME280;3226;42.162;24.756;2023-04-01T05:50:19;98680.59;;;7.76;87.43
6387;BME280;3226;42.162;24.756;2023-04-01T05:52:47;98664.25;;;7.64;87.90
6387;BME280;3226;42.162;24.756;2023-04-01T05:55:15;98671.38;;;7.72;88.36
6387;BME280;3226;42.162;24.756;2023-04-01T05:57:44;98676.78;;;7.90;87.99
6387;BME280;3226;42.162;24.756;2023-04-01T06:00:14;98681.22;;;8.09;87.01
6387;BME280;3226;42.162;24.756;2023-04-01T06:02:42;98649.50;;;7.94;87.88
6387;BME280;3226;42.162;24.756;2023-04-01T06:05:17;98661.31;;;7.98;87.97
6387;BME280;3226;42.162;24.756;2023-04-01T06:07:45;98666.41;;;8.09;88.09
6387;BME280;3226;42.162;24.756;2023-04-01T06:10:15;98658.88;;;8.16;87.52
6387;BME280;3226;42.162;24.756;2023-04-01T06:12:53;98678.38;;;8.42;86.18
6387;BME280;3226;42.162;24.756;2023-04-01T06:15:31;98660.00;;;8.53;86.02
6387;BME280;3226;42.162;24.756;2023-04-01T06:21:04;98642.41;;;8.65;85.02
6387;BME280;3226;42.162;24.756;2023-04-01T06:23:48;98636.81;;;8.60;85.19
6387;BME280;3226;42.162;24.756;2023-04-01T06:26:29;98638.56;;;8.39;86.02
6387;BME280;3226;42.162;24.756;2023-04-01T06:29:23;98631.84;;;8.66;85.52
6387;BME280;3226;42.162;24.756;2023-04-01T06:32:18;98640.78;;;8.74;85.05
6387;BME280;3226;42.162;24.756;2023-04-01T06:35:03;98657.63;;;8.89;84.97
6387;BME280;3226;42.162;24.756;2023-04-01T06:37:54;98667.78;;;8.92;85.10
6387;BME280;3226;42.162;24.756;2023-04-01T06:41:05;98653.06;;;9.01;83.73
6387;BME280;3226;42.162;24.756;2023-04-01T06:43:44;98637.88;;;8.87;85.28
6387;BME280;3226;42.162;24.756;2023-04-01T06:46:20;98634.78;;;9.01;85.28
6387;BME280;3226;42.162;24.756;2023-04-01T06:49:10;98641.69;;;9.40;83.02
6387;BME280;3226;42.162;24.756;2023-04-01T06:51:51;98638.09;;;9.41;82.07
6387;BME280;3226;42.162;24.756;2023-04-01T06:54:28;98636.47;;;9.40;82.97
6387;BME280;3226;42.162;24.756;2023-04-01T06:57:03;98647.09;;;9.84;81.26
6387;BME280;3226;42.162;24.756;2023-04-01T06:59:34;98652.13;;;10.32;79.44
6387;BME280;3226;42.162;24.756;2023-04-01T07:02:16;98628.22;;;10.45;78.40
6387;BME280;3226;42.162;24.756;2023-04-01T07:04:51;98651.06;;;10.79;76.53
6387;BME280;3226;42.162;24.756;2023-04-01T07:07:25;98645.53;;;11.09;75.37
6387;BME280;3226;42.162;24.756;2023-04-01T07:09:56;98641.22;;;10.99;76.15
6387;BME280;3226;42.162;24.756;2023-04-01T07:12:39;98629.59;;;10.76;76.58
6387;BME280;3226;42.162;24.756;2023-04-01T07:15:15;98614.03;;;10.48;78.44
6387;BME280;3226;42.162;24.756;2023-04-01T07:17:46;98614.97;;;10.65;78.67
6387;BME280;3226;42.162;24.756;2023-04-01T07:20:20;98620.22;;;10.65;77.35
6387;BME280;3226;42.162;24.756;2023-04-01T07:22:52;98613.22;;;10.74;77.28
6387;BME280;3226;42.162;24.756;2023-04-01T07:25:24;98609.78;;;10.47;78.67
6387;BME280;3226;42.162;24.756;2023-04-01T07:27:58;98606.44;;;11.16;76.33
6387;BME280;3226;42.162;24.756;2023-04-01T07:30:33;98594.28;;;11.06;76.69
6387;BME280;3226;42.162;24.756;2023-04-01T07:33:07;98602.94;;;11.07;76.64
6387;BME280;3226;42.162;24.756;2023-04-01T07:35:44;98602.06;;;11.24;76.54
6387;BME280;3226;42.162;24.756;2023-04-01T07:38:22;98595.94;;;11.50;75.41
6387;BME280;3226;42.162;24.756;2023-04-01T07:40:57;98595.09;;;11.50;75.40
6387;BME280;3226;42.162;24.756;2023-04-01T07:43:46;98610.53;;;11.61;73.35
6387;BME280;3226;42.162;24.756;2023-04-01T07:46:23;98597.47;;;11.26;74.76
6387;BME280;3226;42.162;24.756;2023-04-01T07:49:01;98587.00;;;11.26;74.08
6387;BME280;3226;42.162;24.756;2023-04-01T07:51:40;98596.72;;;11.42;73.88
6387;BME280;3226;42.162;24.756;2023-04-01T07:54:17;98596.22;;;11.47;73.99
6387;BME280;3226;42.162;24.756;2023-04-01T07:56:51;98597.50;;;11.78;73.24
6387;BME280;3226;42.162;24.756;2023-04-01T07:59:32;98598.66;;;11.92;72.79
6387;BME280;3226;42.162;24.756;2023-04-01T08:02:12;98596.09;;;12.41;71.65
6387;BME280;3226;42.162;24.756;2023-04-01T08:04:58;98587.53;;;12.72;69.67
6387;BME280;3226;42.162;24.756;2023-04-01T08:07:36;98585.44;;;12.51;70.01
6387;BME280;3226;42.162;24.756;2023-04-01T08:10:12;98583.81;;;12.09;72.02
6387;BME280;3226;42.162;24.756;2023-04-01T08:12:48;98574.22;;;11.91;72.79
6387;BME280;3226;42.162;24.756;2023-04-01T08:15:23;98567.84;;;11.94;72.89
6387;BME280;3226;42.162;24.756;2023-04-01T08:18:03;98570.09;;;11.72;73.52
6387;BME280;3226;42.162;24.756;2023-04-01T08:20:36;98557.94;;;11.63;74.13
6387;BME280;3226;42.162;24.756;2023-04-01T08:23:11;98548.34;;;11.28;75.49
6387;BME280;3226;42.162;24.756;2023-04-01T08:25:44;98546.44;;;11.04;76.64
6387;BME280;3226;42.162;24.756;2023-04-01T08:28:19;98544.66;;;11.13;76.90
6387;BME280;3226;42.162;24.756;2023-04-01T08:30:51;98544.19;;;11.09;76.93
6387;BME280;3226;42.162;24.756;2023-04-01T08:33:24;98542.81;;;11.48;74.91
6387;BME280;3226;42.162;24.756;2023-04-01T08:35:56;98543.53;;;11.59;74.63
6387;BME280;3226;42.162;24.756;2023-04-01T08:38:30;98531.47;;;11.31;75.32
6387;BME280;3226;42.162;24.756;2023-04-01T08:41:12;98525.56;;;11.29;75.89
6387;BME280;3226;42.162;24.756;2023-04-01T08:47:13;98516.91;;;11.37;75.79
6387;BME280;3226;42.162;24.756;2023-04-01T08:50:00;98517.31;;;11.59;75.21
6387;BME280;3226;42.162;24.756;2023-04-01T08:52:36;98510.31;;;12.00;73.99
6387;BME280;3226;42.162;24.756;2023-04-01T08:55:22;98500.31;;;12.21;72.98
6387;BME280;3226;42.162;24.756;2023-04-01T08:58:03;98494.00;;;12.63;71.32
6387;BME280;3226;42.162;24.756;2023-04-01T09:00:40;98489.06;;;12.68;71.22
6387;BME280;3226;42.162;24.756;2023-04-01T09:03:31;98497.34;;;12.89;69.78
6387;BME280;3226;42.162;24.756;2023-04-01T09:06:35;98476.09;;;13.07;68.87
6387;BME280;3226;42.162;24.756;2023-04-01T09:12:34;98469.84;;;13.08;68.35
6387;BME280;3226;42.162;24.756;2023-04-01T09:15:22;98460.63;;;13.12;68.13
6387;BME280;3226;42.162;24.756;2023-04-01T09:18:13;98447.56;;;13.27;67.69
6387;BME280;3226;42.162;24.756;2023-04-01T09:20:47;98450.97;;;13.04;68.38
6387;BME280;3226;42.162;24.756;2023-04-01T09:26:36;98431.28;;;13.00;68.74
6387;BME280;3226;42.162;24.756;2023-04-01T09:29:20;98434.56;;;13.25;68.13
6387;BME280;3226;42.162;24.756;2023-04-01T09:32:11;98424.59;;;13.21;69.01
6387;BME280;3226;42.162;24.756;2023-04-01T09:34:55;98420.06;;;13.38;67.80
6387;BME280;3226;42.162;24.756;2023-04-01T09:37:35;98413.97;;;13.61;66.42
6387;BME280;3226;42.162;24.756;2023-04-01T09:40:16;98414.78;;;13.14;68.51
6387;BME280;3226;42.162;24.756;2023-04-01T09:43:01;98413.44;;;13.42;67.23
6387;BME280;3226;42.162;24.756;2023-04-01T09:45:41;98412.31;;;13.68;66.19
6387;BME280;3226;42.162;24.756;2023-04-01T09:48:33;98412.31;;;13.68;66.59
6387;BME280;3226;42.162;24.756;2023-04-01T09:51:24;98423.53;;;13.62;67.67
6387;BME280;3226;42.162;24.756;2023-04-01T09:54:04;98414.66;;;13.63;67.04
6387;BME280;3226;42.162;24.756;2023-04-01T10:00:06;98402.13;;;13.65;66.32
6387;BME280;3226;42.162;24.756;2023-04-01T10:06:27;98371.72;;;13.62;67.04
6387;BME280;3226;42.162;24.756;2023-04-01T10:12:42;98358.66;;;14.07;65.92
6387;BME280;3226;42.162;24.756;2023-04-01T10:15:38;98343.09;;;13.82;65.29
6387;BME280;3226;42.162;24.756;2023-04-01T10:21:42;98352.78;;;14.72;62.21
6387;BME280;3226;42.162;24.756;2023-04-01T10:27:33;98333.53;;;14.56;63.16
6387;BME280;3226;42.162;24.756;2023-04-01T10:36:51;98222.16;;;13.74;63.35
6387;BME280;3226;42.162;24.756;2023-04-01T10:39:33;98318.06;;;14.68;63.19
6387;BME280;3226;42.162;24.756;2023-04-01T10:42:33;98310.94;;;14.84;62.05
6387;BME280;3226;42.162;24.756;2023-04-01T10:45:38;98292.56;;;15.12;60.92
6387;BME280;3226;42.162;24.756;2023-04-01T10:48:48;98261.28;;;15.31;61.24
6387;BME280;3226;42.162;24.756;2023-04-01T10:51:38;98257.84;;;15.66;59.55
6387;BME280;3226;42.162;24.756;2023-04-01T10:54:46;98248.03;;;15.24;60.15
6387;BME280;3226;42.162;24.756;2023-04-01T10:57:34;98234.31;;;15.36;59.87
6387;BME280;3226;42.162;24.756;2023-04-01T11:15:53;98214.72;;;16.49;57.24
6387;BME280;3226;42.162;24.756;2023-04-01T11:18:51;98211.06;;;16.43;56.64
6387;BME280;3226;42.162;24.756;2023-04-01T11:24:47;98202.31;;;16.29;58.88
6387;BME280;3226;42.162;24.756;2023-04-01T11:27:30;98205.19;;;16.68;57.52
6387;BME280;3226;42.162;24.756;2023-04-01T11:30:12;98197.03;;;16.36;56.46
6387;BME280;3226;42.162;24.756;2023-04-01T11:32:49;98202.88;;;16.11;57.63
6387;BME280;3226;42.162;24.756;2023-04-01T11:35:42;98184.44;;;15.76;58.79
6387;BME280;3226;42.162;24.756;2023-04-01T11:38:25;98177.94;;;15.79;59.63
6387;BME280;3226;42.162;24.756;2023-04-01T11:41:02;98172.19;;;16.17;58.30
6387;BME280;3226;42.162;24.756;2023-04-01T11:43:39;98164.16;;;16.66;57.08
6387;BME280;3226;42.162;24.756;2023-04-01T11:46:17;98159.47;;;17.01;56.27
6387;BME280;3226;42.162;24.756;2023-04-01T11:49:02;98158.84;;;17.13;54.85
6387;BME280;3226;42.162;24.756;2023-04-01T11:52:05;98156.38;;;17.38;54.94
6387;BME280;3226;42.162;24.756;2023-04-01T11:57:52;98156.41;;;16.51;57.44
6387;BME280;3226;42.162;24.756;2023-04-01T12:00:51;98167.78;;;17.25;56.08
6387;BME280;3226;42.162;24.756;2023-04-01T12:03:43;98159.75;;;17.59;54.63
6387;BME280;3226;42.162;24.756;2023-04-01T12:06:19;98145.06;;;17.63;54.08
6387;BME280;3226;42.162;24.756;2023-04-01T12:08:54;98146.53;;;17.59;54.18
6387;BME280;3226;42.162;24.756;2023-04-01T12:11:34;98137.13;;;17.63;54.34
6387;BME280;3226;42.162;24.756;2023-04-01T12:14:09;98140.78;;;17.75;54.16
6387;BME280;3226;42.162;24.756;2023-04-01T12:16:48;98125.41;;;17.39;54.93
6387;BME280;3226;42.162;24.756;2023-04-01T12:19:26;98127.09;;;17.33;55.79
6387;BME280;3226;42.162;24.756;2023-04-01T12:22:09;98116.78;;;16.51;58.09
6387;BME280;3226;42.162;24.756;2023-04-01T12:24:45;98099.31;;;16.29;59.12
6387;BME280;3226;42.162;24.756;2023-04-01T12:27:31;98090.34;;;16.24;59.39
6387;BME280;3226;42.162;24.756;2023-04-01T12:30:35;98074.72;;;16.62;59.22
6387;BME280;3226;42.162;24.756;2023-04-01T12:36:22;98077.38;;;17.42;56.53
6387;BME280;3226;42.162;24.756;2023-04-01T12:42:10;98049.47;;;17.85;54.48
6387;BME280;3226;42.162;24.756;2023-04-01T12:44:52;98067.84;;;17.80;54.70
6387;BME280;3226;42.162;24.756;2023-04-01T12:47:40;98058.22;;;17.46;56.03
6387;BME280;3226;42.162;24.756;2023-04-01T12:50:24;98054.88;;;17.65;55.51
6387;BME280;3226;42.162;24.756;2023-04-01T12:53:08;98055.06;;;17.70;55.47
6387;BME280;3226;42.162;24.756;2023-04-01T12:55:41;98051.53;;;17.83;54.73
6387;BME280;3226;42.162;24.756;2023-04-01T12:58:29;98057.41;;;18.24;54.10
6387;BME280;3226;42.162;24.756;2023-04-01T13:01:23;98040.25;;;18.26;53.78
6387;BME280;3226;42.162;24.756;2023-04-01T13:10:20;98036.19;;;17.91;54.91
6387;BME280;3226;42.162;24.756;2023-04-01T13:13:05;98019.22;;;18.06;54.04
6387;BME280;3226;42.162;24.756;2023-04-01T13:15:42;98031.00;;;18.10;53.67
6387;BME280;3226;42.162;24.756;2023-04-01T13:18:23;98035.19;;;17.92;53.68
6387;BME280;3226;42.162;24.756;2023-04-01T13:21:03;98038.56;;;18.32;52.39
6387;BME280;3226;42.162;24.756;2023-04-01T13:23:41;98038.00;;;17.98;52.52
6387;BME280;3226;42.162;24.756;2023-04-01T13:26:18;98032.63;;;18.11;52.31
6387;BME280;3226;42.162;24.756;2023-04-01T13:28:52;98043.13;;;17.92;52.18
6387;BME280;3226;42.162;24.756;2023-04-01T13:31:35;98063.31;;;17.48;53.41
6387;BME280;3226;42.162;24.756;2023-04-01T13:34:17;98132.44;;;16.99;54.86
6387;BME280;3226;42.162;24.756;2023-04-01T13:36:59;98170.25;;;16.73;55.39
6387;BME280;3226;42.162;24.756;2023-04-01T13:39:41;98172.66;;;16.27;56.70
6387;BME280;3226;42.162;24.756;2023-04-01T13:42:21;98177.25;;;16.12;57.87
6387;BME280;3226;42.162;24.756;2023-04-01T13:44:56;98181.22;;;15.87;58.53
6387;BME280;3226;42.162;24.756;2023-04-01T13:48:03;98179.50;;;15.66;60.42
6387;BME280;3226;42.162;24.756;2023-04-01T13:53:57;98220.16;;;15.43;61.78
6387;BME280;3226;42.162;24.756;2023-04-01T13:56:34;98257.56;;;15.54;61.59
6387;BME280;3226;42.162;24.756;2023-04-01T13:59:28;98265.22;;;15.42;61.85
6387;BME280;3226;42.162;24.756;2023-04-01T14:02:14;98293.53;;;15.33;62.36
6387;BME280;3226;42.162;24.756;2023-04-01T14:04:56;98301.63;;;15.31;62.83
6387;BME280;3226;42.162;24.756;2023-04-01T14:07:46;98291.38;;;15.15;66.50
6387;BME280;3226;42.162;24.756;2023-04-01T14:10:20;98291.75;;;15.12;67.62
6387;BME280;3226;42.162;24.756;2023-04-01T14:12:58;98301.47;;;15.11;67.63
6387;BME280;3226;42.162;24.756;2023-04-01T14:15:41;98304.19;;;15.18;67.78
6387;BME280;3226;42.162;24.756;2023-04-01T14:18:19;98313.16;;;15.24;68.26
6387;BME280;3226;42.162;24.756;2023-04-01T14:21:05;98311.94;;;15.26;67.62
6387;BME280;3226;42.162;24.756;2023-04-01T14:23:42;98304.03;;;15.26;67.71
6387;BME280;3226;42.162;24.756;2023-04-01T14:26:22;98292.75;;;15.68;66.60
6387;BME280;3226;42.162;24.756;2023-04-01T14:28:59;98293.56;;;15.97;65.14
6387;BME280;3226;42.162;24.756;2023-04-01T14:31:48;98276.34;;;16.01;64.40
6387;BME280;3226;42.162;24.756;2023-04-01T14:34:33;98268.88;;;15.76;64.24
6387;BME280;3226;42.162;24.756;2023-04-01T14:37:23;98258.84;;;15.65;64.80
6387;BME280;3226;42.162;24.756;2023-04-01T14:40:16;98257.00;;;15.58;64.82
6387;BME280;3226;42.162;24.756;2023-04-01T14:49:04;98221.38;;;15.12;65.91
6387;BME280;3226;42.162;24.756;2023-04-01T14:51:34;98242.75;;;14.74;68.51
6387;BME280;3226;42.162;24.756;2023-04-01T14:54:06;98241.00;;;14.66;69.70
6387;BME280;3226;42.162;24.756;2023-04-01T14:56:41;98241.44;;;14.85;70.68
6387;BME280;3226;42.162;24.756;2023-04-01T14:59:26;98249.75;;;14.67;72.91
6387;BME280;3226;42.162;24.756;2023-04-01T15:02:01;98246.16;;;14.53;74.96
6387;BME280;3226;42.162;24.756;2023-04-01T15:04:57;98238.19;;;14.68;75.06
6387;BME280;3226;42.162;24.756;2023-04-01T15:07:50;98231.72;;;14.49;76.14
6387;BME280;3226;42.162;24.756;2023-04-01T15:13:42;98227.34;;;14.34;77.55
6387;BME280;3226;42.162;24.756;2023-04-01T15:16:20;98232.72;;;14.48;77.18
6387;BME280;3226;42.162;24.756;2023-04-01T15:18:59;98231.47;;;14.65;76.04
6387;BME280;3226;42.162;24.756;2023-04-01T15:21:50;98246.53;;;14.50;75.45
6387;BME280;3226;42.162;24.756;2023-04-01T15:24:39;98249.22;;;14.35;75.83
6387;BME280;3226;42.162;24.756;2023-04-01T15:27:27;98243.03;;;14.42;76.10
6387;BME280;3226;42.162;24.756;2023-04-01T15:30:14;98227.59;;;14.39;75.27
6387;BME280;3226;42.162;24.756;2023-04-01T15:32:55;98204.09;;;14.23;75.87